Time;durP1;ratioP1;P1;durP2;ratioP2;P2;SDS_P1;SDS_P2;PMS_P1;PMS_P2;Temp;Humidity;BMP_temperature;BMP_pressure;BME280_temperature;BME280_humidity;BME280_pressure;Samples;Min_cycle;Max_cycle;Signal;HPM_P1;HPM_P2
2023/07/06 00:01:39;;;;;;;23.15;21.90;;;;;;;;;;5010489;28;20031;-67
2023/07/06 00:04:04;;;;;;;24.48;23.17;;;;;;;;;;5014302;28;20033;-68
2023/07/06 00:06:32;;;;;;;23.00;21.77;;;;;;;;;;5013137;28;20291;-67
2023/07/06 00:08:58;;;;;;;23.15;21.88;;;;;;;;;;5009896;28;20333;-68
2023/07/06 00:11:23;;;;;;;24.55;23.25;;;;;;;;;;5015246;28;20068;-67
2023/07/06 00:13:48;;;;;;;25.27;23.92;;;;;;;;;;5010242;28;20057;-68
2023/07/06 00:16:14;;;;;;;25.35;24.00;;;;;;;;;;5010138;28;20045;-67
2023/07/06 00:18:41;;;;;;;24.52;23.23;;;;;;;;;;5010884;28;20152;-67
2023/07/06 00:21:08;;;;;;;24.13;22.83;;;;;;;;;;5013514;28;20033;-68
2023/07/06 00:23:33;;;;;;;24.25;22.90;;;;;;;;;;5013548;28;20387;-67
2023/07/06 00:25:58;;;;;;;27.05;25.60;;;;;;;;;;5013624;28;20036;-67
2023/07/06 00:28:28;;;;;;;28.58;27.08;;;;;;;;;;5013818;28;20112;-67
2023/07/06 00:31:01;;;;;;;26.48;25.02;;;;;;;;;;5009468;28;20180;-68
2023/07/06 00:33:28;;;;;;;26.00;24.60;;;;;;;;;;5010595;28;20391;-68
2023/07/06 00:35:53;;;;;;;25.10;23.75;;;;;;;;;;5012958;28;20463;-67
2023/07/06 00:38:21;;;;;;;27.30;25.85;;;;;;;;;;5013503;28;20038;-67
2023/07/06 00:40:49;;;;;;;25.48;24.13;;;;;;;;;;5014837;28;20467;-67
2023/07/06 00:43:20;;;;;;;26.33;24.80;;;;;;;;;;5011502;28;20034;-67
2023/07/06 00:45:50;;;;;;;23.75;22.45;;;;;;;;;;5016800;28;20434;-67
2023/07/06 00:48:26;;;;;;;25.83;24.48;;;;;;;;;;5013642;28;20282;-68
2023/07/06 00:50:55;;;;;;;25.83;24.42;;;;;;;;;;5018051;28;20048;-68
2023/07/06 00:53:23;;;;;;;25.42;24.02;;;;;;;;;;5016109;28;20068;-67
2023/07/06 00:55:50;;;;;;;25.70;24.33;;;;;;;;;;5015852;28;20076;-68
2023/07/06 00:58:24;;;;;;;26.38;25.00;;;;;;;;;;5010833;28;20029;-68
2023/07/06 01:00:54;;;;;;;25.65;24.27;;;;;;;;;;5014012;28;20033;-68
2023/07/06 01:03:20;;;;;;;23.23;21.92;;;;;;;;;;5010037;28;20503;-68
2023/07/06 01:05:52;;;;;;;22.45;21.25;;;;;;;;;;5012079;28;20037;-68
2023/07/06 01:08:21;;;;;;;24.08;22.77;;;;;;;;;;5014479;28;20460;-68
2023/07/06 01:10:48;;;;;;;23.65;22.38;;;;;;;;;;5016015;28;20047;-68
2023/07/06 01:13:14;;;;;;;23.80;22.55;;;;;;;;;;5012478;28;20033;-68
2023/07/06 01:15:48;;;;;;;21.75;20.45;;;;;;;;;;5013116;28;20196;-68
2023/07/06 01:18:41;;;;;;;22.13;20.92;;;;;;;;;;5013783;28;20041;-68
2023/07/06 01:21:42;;;;;;;21.15;20.02;;;;;;;;;;5011841;28;20029;-68
2023/07/06 01:24:22;;;;;;;21.08;19.90;;;;;;;;;;4994784;28;20442;-68
2023/07/06 01:26:57;;;;;;;18.15;17.15;;;;;;;;;;5014273;28;20053;-68
2023/07/06 01:29:30;;;;;;;20.55;19.25;;;;;;;;;;5013254;28;20060;-68
2023/07/06 01:32:05;;;;;;;21.10;19.90;;;;;;;;;;4999983;28;20037;-68
2023/07/06 01:34:41;;;;;;;20.15;19.05;;;;;;;;;;5014039;28;20120;-68
2023/07/06 01:37:30;;;;;;;19.20;18.05;;;;;;;;;;5014335;28;20416;-68
2023/07/06 01:39:58;;;;;;;18.55;17.55;;;;;;;;;;5013657;28;20392;-68
2023/07/06 01:42:25;;;;;;;18.05;17.05;;;;;;;;;;5014923;28;20038;-68
2023/07/06 01:44:52;;;;;;;19.20;18.08;;;;;;;;;;5014233;28;20314;-68
2023/07/06 01:47:19;;;;;;;17.83;16.83;;;;;;;;;;5013679;28;20346;-68
2023/07/06 01:49:46;;;;;;;18.17;17.17;;;;;;;;;;5013611;28;20064;-68
2023/07/06 01:52:28;;;;;;;18.13;17.13;;;;;;;;;;5012215;28;20037;-68
2023/07/06 01:55:09;;;;;;;18.52;17.25;;;;;;;;;;5010900;28;20046;-68
2023/07/06 01:57:41;;;;;;;17.77;16.77;;;;;;;;;;5011503;28;20103;-68
2023/07/06 02:00:12;;;;;;;17.92;16.92;;;;;;;;;;5013615;28;20092;-68
2023/07/06 02:02:38;;;;;;;18.33;17.17;;;;;;;;;;5013498;28;20041;-68
2023/07/06 02:05:05;;;;;;;19.58;17.80;;;;;;;;;;5015695;28;20414;-67
2023/07/06 02:07:32;;;;;;;19.23;18.17;;;;;;;;;;5013565;28;20169;-67
2023/07/06 02:09:57;;;;;;;18.70;17.70;;;;;;;;;;5012604;28;20029;-67
2023/07/06 02:12:22;;;;;;;18.77;17.75;;;;;;;;;;5013404;28;20403;-67
2023/07/06 02:14:48;;;;;;;20.50;19.40;;;;;;;;;;5012867;28;20120;-68
2023/07/06 02:17:15;;;;;;;19.75;18.65;;;;;;;;;;5014826;28;20061;-67
2023/07/06 02:19:42;;;;;;;18.65;17.65;;;;;;;;;;5014389;28;20573;-67
2023/07/06 02:22:08;;;;;;;18.90;17.88;;;;;;;;;;5011157;28;20120;-67
2023/07/06 02:24:33;;;;;;;17.38;16.38;;;;;;;;;;5012087;28;20120;-67
2023/07/06 02:26:59;;;;;;;18.95;17.85;;;;;;;;;;5010497;28;20033;-67
2023/07/06 02:29:24;;;;;;;17.27;16.30;;;;;;;;;;5012432;28;20018;-67
2023/07/06 02:31:50;;;;;;;18.52;17.27;;;;;;;;;;5014036;28;20045;-67
2023/07/06 02:34:24;;;;;;;17.60;16.55;;;;;;;;;;5014920;28;20044;-67
2023/07/06 02:36:50;;;;;;;18.05;17.05;;;;;;;;;;5014172;28;20076;-68
2023/07/06 02:39:15;;;;;;;18.65;17.33;;;;;;;;;;5011200;28;20044;-68
2023/07/06 02:41:41;;;;;;;18.13;17.13;;;;;;;;;;5014157;28;20523;-67
2023/07/06 02:44:06;;;;;;;20.17;19.08;;;;;;;;;;5011382;28;20044;-67
2023/07/06 02:46:31;;;;;;;19.42;18.33;;;;;;;;;;5013343;28;20026;-67
2023/07/06 02:48:57;;;;;;;16.77;15.77;;;;;;;;;;5012519;28;20563;-67
2023/07/06 02:51:22;;;;;;;17.40;16.40;;;;;;;;;;5013279;28;20034;-67
2023/07/06 02:53:48;;;;;;;16.23;15.32;;;;;;;;;;5012046;28;20036;-67
2023/07/06 02:56:13;;;;;;;16.00;15.10;;;;;;;;;;5012005;28;20045;-67
2023/07/06 02:58:39;;;;;;;16.30;15.35;;;;;;;;;;5012732;28;20029;-67
2023/07/06 03:01:04;;;;;;;17.00;16.08;;;;;;;;;;5010696;28;20072;-67
2023/07/06 03:03:29;;;;;;;16.23;15.32;;;;;;;;;;5010578;28;20459;-68
2023/07/06 03:05:55;;;;;;;15.73;14.82;;;;;;;;;;5012007;28;20479;-67
2023/07/06 03:08:20;;;;;;;17.65;16.65;;;;;;;;;;5011478;28;20103;-67
2023/07/06 03:10:46;;;;;;;18.85;17.67;;;;;;;;;;5011268;28;20037;-67
2023/07/06 03:13:13;;;;;;;17.73;16.73;;;;;;;;;;5010000;28;20165;-68
2023/07/06 03:15:40;;;;;;;17.75;16.75;;;;;;;;;;5013315;28;20029;-67
2023/07/06 03:18:06;;;;;;;17.45;16.45;;;;;;;;;;5013014;28;20018;-67
2023/07/06 03:20:36;;;;;;;17.88;16.88;;;;;;;;;;5012512;28;20041;-67
2023/07/06 03:23:02;;;;;;;19.35;18.27;;;;;;;;;;5010302;28;20545;-67
2023/07/06 03:25:28;;;;;;;19.02;17.92;;;;;;;;;;5011120;28;20537;-67
2023/07/06 03:27:54;;;;;;;20.75;19.60;;;;;;;;;;5013653;28;20057;-67
2023/07/06 03:30:27;;;;;;;20.42;19.23;;;;;;;;;;5011870;28;20528;-67
2023/07/06 03:32:54;;;;;;;18.30;17.30;;;;;;;;;;5011025;28;20108;-67
2023/07/06 03:35:22;;;;;;;17.95;16.95;;;;;;;;;;5012799;28;20088;-67
2023/07/06 03:37:48;;;;;;;20.50;19.40;;;;;;;;;;5013201;28;20072;-67
2023/07/06 03:40:14;;;;;;;18.92;17.88;;;;;;;;;;5008738;28;20025;-67
2023/07/06 03:42:47;;;;;;;18.95;17.85;;;;;;;;;;5008844;28;20092;-67
2023/07/06 03:45:14;;;;;;;20.42;19.23;;;;;;;;;;5010488;28;20040;-67
2023/07/06 03:47:45;;;;;;;19.42;18.33;;;;;;;;;;5012141;28;20108;-67
2023/07/06 03:50:12;;;;;;;19.30;18.20;;;;;;;;;;5012769;28;20038;-67
2023/07/06 03:52:39;;;;;;;20.63;19.52;;;;;;;;;;5012696;28;20052;-67
2023/07/06 03:55:05;;;;;;;17.92;16.85;;;;;;;;;;5010908;28;20044;-67
2023/07/06 03:57:31;;;;;;;20.55;19.45;;;;;;;;;;5009972;28;20038;-67
2023/07/06 03:59:56;;;;;;;19.60;18.50;;;;;;;;;;5013268;28;20060;-67
2023/07/06 04:02:22;;;;;;;18.17;17.17;;;;;;;;;;5011534;28;20041;-67
2023/07/06 04:04:48;;;;;;;20.38;19.27;;;;;;;;;;5010860;28;20037;-67
2023/07/06 04:07:14;;;;;;;20.50;19.30;;;;;;;;;;5009794;28;20348;-66
2023/07/06 04:09:39;;;;;;;19.70;18.60;;;;;;;;;;5008603;28;20044;-67
2023/07/06 04:12:08;;;;;;;19.60;18.50;;;;;;;;;;5001779;28;20037;-68
2023/07/06 04:14:34;;;;;;;19.40;18.08;;;;;;;;;;5011986;28;20459;-69
2023/07/06 04:16:59;;;;;;;19.08;18.08;;;;;;;;;;5009916;28;20030;-68
2023/07/06 04:19:25;;;;;;;20.08;18.98;;;;;;;;;;5017270;28;20037;-66
2023/07/06 04:21:52;;;;;;;18.50;17.45;;;;;;;;;;5018361;28;20501;-66
2023/07/06 04:24:17;;;;;;;20.27;18.98;;;;;;;;;;5017578;28;20041;-66
2023/07/06 04:26:45;;;;;;;18.15;17.15;;;;;;;;;;5020417;28;20029;-67
2023/07/06 04:29:11;;;;;;;18.98;17.88;;;;;;;;;;5006299;28;20030;-67
2023/07/06 04:31:37;;;;;;;19.63;18.42;;;;;;;;;;5018319;28;20091;-67
2023/07/06 04:34:03;;;;;;;18.08;17.08;;;;;;;;;;5016428;28;20022;-68
2023/07/06 04:36:31;;;;;;;18.98;17.95;;;;;;;;;;5019616;28;20025;-68
2023/07/06 04:39:00;;;;;;;19.13;18.05;;;;;;;;;;5018015;28;20352;-68
2023/07/06 04:41:26;;;;;;;19.75;18.60;;;;;;;;;;5012792;28;20040;-68
2023/07/06 04:43:52;;;;;;;19.10;18.00;;;;;;;;;;5015832;28;20029;-68
2023/07/06 04:46:20;;;;;;;18.35;17.35;;;;;;;;;;5014435;28;20021;-68
2023/07/06 04:48:46;;;;;;;17.42;16.42;;;;;;;;;;5019234;28;20033;-68
2023/07/06 04:51:12;;;;;;;17.50;16.50;;;;;;;;;;5018037;28;20055;-68
2023/07/06 04:53:38;;;;;;;17.85;16.85;;;;;;;;;;5017146;28;20519;-68
2023/07/06 04:56:04;;;;;;;18.08;16.83;;;;;;;;;;5016291;28;20025;-67
2023/07/06 04:58:30;;;;;;;18.85;17.75;;;;;;;;;;5018957;28;20036;-67
2023/07/06 05:00:56;;;;;;;19.95;18.42;;;;;;;;;;5016771;28;20022;-67
2023/07/06 05:03:22;;;;;;;18.25;17.25;;;;;;;;;;5016003;28;20229;-68
2023/07/06 05:05:47;;;;;;;17.80;16.80;;;;;;;;;;5016354;28;20033;-67
2023/07/06 05:08:16;;;;;;;18.88;17.88;;;;;;;;;;5015888;28;20041;-68
2023/07/06 05:10:47;;;;;;;18.05;17.05;;;;;;;;;;5019990;28;20034;-68
2023/07/06 05:13:13;;;;;;;19.40;18.30;;;;;;;;;;5012001;28;20054;-67
2023/07/06 05:15:39;;;;;;;19.88;18.75;;;;;;;;;;5016268;28;20033;-67
2023/07/06 05:18:06;;;;;;;19.13;18.05;;;;;;;;;;5014304;28;20029;-67
2023/07/06 05:20:32;;;;;;;19.38;18.27;;;;;;;;;;5015816;28;20048;-67
2023/07/06 05:22:58;;;;;;;19.60;18.48;;;;;;;;;;5016723;28;20033;-67
2023/07/06 05:25:25;;;;;;;18.80;17.80;;;;;;;;;;5016902;28;20034;-66
2023/07/06 05:27:51;;;;;;;20.38;19.25;;;;;;;;;;5018089;28;20036;-67
2023/07/06 05:30:17;;;;;;;20.67;19.48;;;;;;;;;;5015256;28;20486;-67
2023/07/06 05:32:42;;;;;;;23.88;22.38;;;;;;;;;;5011234;28;20029;-67
2023/07/06 05:35:08;;;;;;;22.63;21.38;;;;;;;;;;5010622;28;20065;-67
2023/07/06 05:37:33;;;;;;;25.85;24.45;;;;;;;;;;5011923;28;20051;-66
2023/07/06 05:40:02;;;;;;;29.00;27.50;;;;;;;;;;5013932;28;20033;-66
2023/07/06 05:42:28;;;;;;;34.50;32.67;;;;;;;;;;5015357;28;20026;-67
2023/07/06 05:44:54;;;;;;;41.80;39.67;;;;;;;;;;5014558;28;20472;-67
2023/07/06 05:47:20;;;;;;;39.50;37.30;;;;;;;;;;5012900;28;20025;-67
2023/07/06 05:49:45;;;;;;;44.10;41.58;;;;;;;;;;5015477;28;20049;-67
2023/07/06 05:52:12;;;;;;;41.17;39.08;;;;;;;;;;5013690;28;20267;-67
2023/07/06 05:54:39;;;;;;;41.42;39.30;;;;;;;;;;5016527;28;20037;-67
2023/07/06 05:57:05;;;;;;;37.25;35.22;;;;;;;;;;5015547;28;20541;-67
2023/07/06 05:59:30;;;;;;;38.38;36.38;;;;;;;;;;5013307;28;20483;-67
2023/07/06 06:01:58;;;;;;;34.25;32.40;;;;;;;;;;5013349;28;20033;-68
2023/07/06 06:04:25;;;;;;;37.92;35.97;;;;;;;;;;5012036;28;20120;-67
2023/07/06 06:06:54;;;;;;;31.95;30.23;;;;;;;;;;5015279;28;20467;-68
2023/07/06 06:09:21;;;;;;;29.60;28.02;;;;;;;;;;5014289;28;20033;-68
2023/07/06 06:11:48;;;;;;;30.08;28.50;;;;;;;;;;5012884;28;20029;-68
2023/07/06 06:14:13;;;;;;;34.80;32.90;;;;;;;;;;5016072;28;20048;-67
2023/07/06 06:16:39;;;;;;;32.38;30.70;;;;;;;;;;5013807;28;20037;-68
2023/07/06 06:19:04;;;;;;;31.48;29.85;;;;;;;;;;5015421;28;20412;-68
2023/07/06 06:21:30;;;;;;;28.70;27.17;;;;;;;;;;5014682;28;20090;-67
2023/07/06 06:23:57;;;;;;;28.83;27.25;;;;;;;;;;5012160;28;20061;-68
2023/07/06 06:26:23;;;;;;;30.30;28.73;;;;;;;;;;5012410;28;20021;-68
2023/07/06 06:28:49;;;;;;;21.85;20.65;;;;;;;;;;5010769;28;20541;-68
2023/07/06 06:31:15;;;;;;;23.05;21.80;;;;;;;;;;5015371;28;20137;-68
2023/07/06 06:33:40;;;;;;;29.60;28.02;;;;;;;;;;5012772;28;20034;-67
2023/07/06 06:36:07;;;;;;;21.27;20.15;;;;;;;;;;5013590;28;20060;-68
2023/07/06 06:38:34;;;;;;;20.77;19.63;;;;;;;;;;5012742;28;20038;-67
2023/07/06 06:41:02;;;;;;;21.63;20.45;;;;;;;;;;5012700;28;20063;-67
2023/07/06 06:43:28;;;;;;;25.70;24.35;;;;;;;;;;5011381;28;20034;-66
2023/07/06 06:45:54;;;;;;;22.73;21.48;;;;;;;;;;5008829;28;20018;-67
2023/07/06 06:48:20;;;;;;;20.85;19.73;;;;;;;;;;5009510;28;20069;-65
2023/07/06 06:50:45;;;;;;;24.25;22.90;;;;;;;;;;5013219;28;20392;-67
2023/07/06 06:53:11;;;;;;;24.85;23.52;;;;;;;;;;5012016;28;20049;-67
2023/07/06 06:55:37;;;;;;;26.40;25.00;;;;;;;;;;5013519;28;20042;-67
2023/07/06 06:58:03;;;;;;;27.75;26.23;;;;;;;;;;5010628;28;20036;-68
2023/07/06 07:00:29;;;;;;;28.45;26.98;;;;;;;;;;5010505;28;20375;-67
2023/07/06 07:02:55;;;;;;;26.17;24.80;;;;;;;;;;5011297;28;20040;-67
2023/07/06 07:05:20;;;;;;;29.88;28.30;;;;;;;;;;5012399;28;20148;-67
2023/07/06 07:07:47;;;;;;;27.90;26.45;;;;;;;;;;5013124;28;20038;-67
2023/07/06 07:10:12;;;;;;;30.67;28.92;;;;;;;;;;5012317;28;20060;-67
2023/07/06 07:12:39;;;;;;;28.88;27.35;;;;;;;;;;5012899;28;20030;-68
2023/07/06 07:15:09;;;;;;;28.92;27.42;;;;;;;;;;5010227;28;20037;-68
2023/07/06 07:17:36;;;;;;;31.20;29.58;;;;;;;;;;5014048;28;20095;-68
2023/07/06 07:20:01;;;;;;;32.53;30.83;;;;;;;;;;5010876;28;20036;-68
2023/07/06 07:22:27;;;;;;;29.75;28.17;;;;;;;;;;5010242;28;20293;-67
2023/07/06 07:24:53;;;;;;;37.90;35.92;;;;;;;;;;5014232;28;20406;-68
2023/07/06 07:27:19;;;;;;;26.85;25.45;;;;;;;;;;5012477;28;20470;-67
2023/07/06 07:29:46;;;;;;;29.45;27.80;;;;;;;;;;5014373;28;20036;-67
2023/07/06 07:32:11;;;;;;;28.55;27.05;;;;;;;;;;5009747;28;20542;-67
2023/07/06 07:34:37;;;;;;;31.50;29.85;;;;;;;;;;5011510;28;20029;-67
2023/07/06 07:37:02;;;;;;;27.70;26.25;;;;;;;;;;5011207;28;20030;-67
2023/07/06 07:39:28;;;;;;;27.30;25.83;;;;;;;;;;5010160;28;20471;-67
2023/07/06 07:41:53;;;;;;;25.33;23.98;;;;;;;;;;5009221;28;20029;-67
2023/07/06 07:44:19;;;;;;;31.33;29.73;;;;;;;;;;5011148;28;20037;-68
2023/07/06 07:46:44;;;;;;;21.55;20.35;;;;;;;;;;5011006;28;20414;-68
2023/07/06 07:49:10;;;;;;;21.13;19.95;;;;;;;;;;5010184;28;20489;-67
2023/07/06 07:51:35;;;;;;;26.30;24.90;;;;;;;;;;5014402;28;20475;-67
2023/07/06 07:54:01;;;;;;;27.75;26.08;;;;;;;;;;5008094;28;20053;-68
2023/07/06 07:56:27;;;;;;;26.33;24.70;;;;;;;;;;5009296;28;20368;-68
2023/07/06 07:58:52;;;;;;;23.67;22.42;;;;;;;;;;5013865;28;20112;-68
2023/07/06 08:01:21;;;;;;;26.75;25.35;;;;;;;;;;5011427;28;20045;-67
2023/07/06 08:03:47;;;;;;;25.38;24.00;;;;;;;;;;5011796;28;20048;-67
2023/07/06 08:06:16;;;;;;;27.88;26.40;;;;;;;;;;5013671;28;20030;-68
2023/07/06 08:08:43;;;;;;;30.83;29.23;;;;;;;;;;5014033;28;20467;-68
2023/07/06 08:11:14;;;;;;;34.03;32.28;;;;;;;;;;5010831;28;20135;-68
2023/07/06 08:13:40;;;;;;;47.10;44.72;;;;;;;;;;5013894;28;20022;-68
2023/07/06 08:16:06;;;;;;;41.20;39.10;;;;;;;;;;5009312;28;20037;-68
2023/07/06 08:18:32;;;;;;;44.78;42.47;;;;;;;;;;5011738;28;20065;-69
2023/07/06 08:20:58;;;;;;;49.08;46.63;;;;;;;;;;5015316;28;20084;-69
2023/07/06 08:23:26;;;;;;;37.85;35.78;;;;;;;;;;5010887;28;20363;-68
2023/07/06 08:25:52;;;;;;;66.32;63.03;;;;;;;;;;5011736;28;20423;-68
2023/07/06 08:28:24;;;;;;;73.80;70.15;;;;;;;;;;5011301;28;20108;-68
2023/07/06 08:30:51;;;;;;;76.22;72.45;;;;;;;;;;5010636;28;20426;-68
2023/07/06 08:33:20;;;;;;;84.28;80.13;;;;;;;;;;5008290;28;20125;-68
2023/07/06 08:35:46;;;;;;;75.10;71.40;;;;;;;;;;5008686;28;20099;-68
2023/07/06 08:38:13;;;;;;;91.20;86.72;;;;;;;;;;5012691;28;20033;-68
2023/07/06 08:40:40;;;;;;;89.97;85.53;;;;;;;;;;5012173;28;20100;-68
2023/07/06 08:43:13;;;;;;;93.78;89.18;;;;;;;;;;5013593;28;20026;-68
2023/07/06 08:45:42;;;;;;;92.05;87.53;;;;;;;;;;5012558;28;20029;-69
2023/07/06 08:48:16;;;;;;;90.75;86.25;;;;;;;;;;5009918;28;20022;-70
2023/07/06 08:50:52;;;;;;;78.97;75.10;;;;;;;;;;5012029;28;20047;-69
2023/07/06 08:53:20;;;;;;;56.25;53.45;;;;;;;;;;5006275;28;20037;-69
2023/07/06 08:55:51;;;;;;;97.82;93.03;;;;;;;;;;5010057;28;20041;-70
2023/07/06 08:58:27;;;;;;;;;;;;;;;;;;5012788;28;20067;-71
2023/07/06 09:01:00;;;;;;;46.65;44.30;;;;;;;;;;5009388;28;20121;-70
2023/07/06 09:03:26;;;;;;;79.43;75.50;;;;;;;;;;5010518;28;20029;-69
2023/07/06 09:05:52;;;;;;;51.08;48.47;;;;;;;;;;5014055;28;20030;-70
2023/07/06 09:08:19;;;;;;;52.47;49.85;;;;;;;;;;5014343;28;20034;-70
2023/07/06 09:10:44;;;;;;;59.78;56.78;;;;;;;;;;5014419;28;20379;-70
2023/07/06 09:13:15;;;;;;;57.35;54.45;;;;;;;;;;5012380;28;20383;-70
2023/07/06 09:15:40;;;;;;;79.35;75.45;;;;;;;;;;5013453;28;20034;-69
2023/07/06 09:18:13;;;;;;;70.38;66.88;;;;;;;;;;5013702;28;20107;-69
2023/07/06 09:20:39;;;;;;;68.22;64.85;;;;;;;;;;5014011;28;20090;-68
2023/07/06 09:23:06;;;;;;;70.07;66.57;;;;;;;;;;5011024;28;20099;-68
2023/07/06 09:25:38;;;;;;;73.20;69.57;;;;;;;;;;5016140;28;20030;-68
2023/07/06 09:28:07;;;;;;;77.80;73.97;;;;;;;;;;5013893;28;20116;-68
2023/07/06 09:30:36;;;;;;;86.05;81.80;;;;;;;;;;5014133;28;20061;-71
2023/07/06 09:33:18;;;;;;;69.32;65.88;;;;;;;;;;5015466;28;20110;-68
2023/07/06 09:35:44;;;;;;;71.68;68.13;;;;;;;;;;5027783;28;20057;-69
2023/07/06 09:38:14;;;;;;;63.42;60.28;;;;;;;;;;5011441;28;20475;-68
2023/07/06 09:40:43;;;;;;;91.03;86.55;;;;;;;;;;5014076;28;20471;-69
2023/07/06 09:43:24;;;;;;;87.60;83.30;;;;;;;;;;5011330;28;20041;-69
2023/07/06 09:45:51;;;;;;;82.63;78.55;;;;;;;;;;5014943;28;20352;-68
2023/07/06 09:48:31;;;;;;;83.93;79.78;;;;;;;;;;5014338;28;20531;-68
2023/07/06 09:51:11;;;;;;;75.85;72.07;;;;;;;;;;5017037;28;20033;-68
2023/07/06 09:53:59;;;;;;;79.90;75.93;;;;;;;;;;5013189;28;20192;-67
2023/07/06 09:56:25;;;;;;;87.88;83.55;;;;;;;;;;5014209;28;20049;-68
2023/07/06 09:58:52;;;;;;;71.10;67.60;;;;;;;;;;5015995;28;20034;-68
2023/07/06 10:01:31;;;;;;;78.38;74.47;;;;;;;;;;5013872;28;20049;-68
2023/07/06 10:04:44;;;;;;;76.45;72.68;;;;;;;;;;5010886;28;20041;-67
2023/07/06 10:07:28;;;;;;;77.13;73.30;;;;;;;;;;4993825;28;20064;-69
2023/07/06 10:10:14;;;;;;;85.07;80.88;;;;;;;;;;4994592;28;20052;-68
2023/07/06 10:13:00;;;;;;;62.58;59.47;;;;;;;;;;5007963;28;20042;-68
2023/07/06 10:15:40;;;;;;;74.80;71.10;;;;;;;;;;5011459;28;20032;-67
2023/07/06 10:18:15;;;;;;;50.28;47.78;;;;;;;;;;5013512;28;20505;-67
2023/07/06 10:20:53;;;;;;;55.90;53.10;;;;;;;;;;5009235;28;20041;-67
2023/07/06 10:23:34;;;;;;;45.13;42.85;;;;;;;;;;5017549;28;20044;-67
2023/07/06 10:26:10;;;;;;;54.38;51.63;;;;;;;;;;5012484;28;20101;-67
2023/07/06 10:28:41;;;;;;;55.08;52.30;;;;;;;;;;5014973;28;20065;-68
2023/07/06 10:31:12;;;;;;;47.40;45.00;;;;;;;;;;5013226;28;20090;-68
2023/07/06 10:33:58;;;;;;;117.25;111.47;;;;;;;;;;5012028;28;20061;-69
2023/07/06 10:36:32;;;;;;;72.22;68.65;;;;;;;;;;5013334;28;20044;-70
2023/07/06 10:39:10;;;;;;;100.43;95.45;;;;;;;;;;5009794;28;20037;-68
2023/07/06 10:41:41;;;;;;;133.85;127.22;;;;;;;;;;5021013;28;20036;-70
2023/07/06 10:44:44;;;;;;;123.88;117.78;;;;;;;;;;5011281;28;20117;-69
2023/07/06 10:47:28;;;;;;;119.93;114.00;;;;;;;;;;5012456;28;20038;-68
2023/07/06 10:50:22;;;;;;;133.13;126.40;;;;;;;;;;5023360;28;20359;-68
2023/07/06 10:53:23;;;;;;;107.97;102.65;;;;;;;;;;5010699;28;20258;-68
2023/07/06 10:56:28;;;;;;;124.13;118.03;;;;;;;;;;5013642;28;20042;-69
2023/07/06 10:58:57;;;;;;;128.48;122.07;;;;;;;;;;5013777;28;20096;-72
2023/07/06 11:01:30;;;;;;;134.27;127.68;;;;;;;;;;5012751;28;20038;-69
2023/07/06 11:03:56;;;;;;;110.35;104.90;;;;;;;;;;5013287;28;20096;-69
2023/07/06 11:06:41;;;;;;;124.30;118.18;;;;;;;;;;5014480;28;20033;-69
2023/07/06 11:09:07;;;;;;;122.80;116.78;;;;;;;;;;5013406;28;20048;-69
2023/07/06 11:11:54;;;;;;;105.18;100.03;;;;;;;;;;5012618;28;20443;-69
2023/07/06 11:14:31;;;;;;;75.88;72.10;;;;;;;;;;5009880;28;20571;-70
2023/07/06 11:17:19;;;;;;;99.53;94.63;;;;;;;;;;5014709;28;20057;-69
2023/07/06 11:20:09;;;;;;;86.72;82.43;;;;;;;;;;5014342;28;20474;-70
2023/07/06 11:22:36;;;;;;;77.13;73.30;;;;;;;;;;5011624;28;20088;-69
2023/07/06 11:25:03;;;;;;;76.18;72.38;;;;;;;;;;5010495;28;20065;-69
2023/07/06 11:27:34;;;;;;;84.13;79.97;;;;;;;;;;5012572;28;20036;-68
2023/07/06 11:30:12;;;;;;;73.43;69.80;;;;;;;;;;5013054;28;20387;-68
2023/07/06 11:33:00;;;;;;;83.38;79.25;;;;;;;;;;5011303;28;20052;-69
2023/07/06 11:35:34;;;;;;;79.40;75.45;;;;;;;;;;5016562;28;20033;-71
2023/07/06 11:38:05;;;;;;;79.50;75.57;;;;;;;;;;5011503;28;20045;-72
2023/07/06 11:40:41;;;;;;;73.20;69.45;;;;;;;;;;5011687;28;20140;-68
2023/07/06 11:43:50;;;;;;;86.18;81.93;;;;;;;;;;5011942;28;20091;-69
2023/07/06 11:46:36;;;;;;;84.80;80.57;;;;;;;;;;5011505;28;20042;-68
2023/07/06 11:49:20;;;;;;;82.50;78.43;;;;;;;;;;5014734;28;20706;-68
2023/07/06 11:51:48;;;;;;;85.40;81.20;;;;;;;;;;5015821;28;20041;-68
2023/07/06 11:54:39;;;;;;;80.65;76.65;;;;;;;;;;5008528;28;20037;-68
2023/07/06 11:59:52;;;;;;;91.75;87.25;;;;;;;;;;5010659;28;20619;-67
2023/07/06 12:02:20;;;;;;;81.82;77.78;;;;;;;;;;5008478;28;20053;-69
2023/07/06 12:04:46;;;;;;;83.70;79.60;;;;;;;;;;4997219;28;20040;-69
2023/07/06 12:07:30;;;;;;;80.03;76.03;;;;;;;;;;5009057;28;20463;-68
2023/07/06 12:10:01;;;;;;;78.28;73.95;;;;;;;;;;5010397;28;20068;-68
2023/07/06 12:12:28;;;;;;;83.93;79.80;;;;;;;;;;5012139;28;20037;-68
2023/07/06 12:14:55;;;;;;;81.72;77.65;;;;;;;;;;5012108;28;20036;-68
2023/07/06 12:17:22;;;;;;;81.13;77.13;;;;;;;;;;5011611;28;20127;-67
2023/07/06 12:19:48;;;;;;;84.72;80.55;;;;;;;;;;5013762;28;20040;-69
2023/07/06 12:22:18;;;;;;;80.22;76.28;;;;;;;;;;5007968;28;20472;-68
2023/07/06 12:24:44;;;;;;;;;;;;;;;;;;5007796;28;20133;-68
2023/07/06 12:27:15;;;;;;;96.30;91.57;;;;;;;;;;5011472;28;20007;-70
2023/07/06 12:29:41;;;;;;;92.88;88.30;;;;;;;;;;5012527;28;20049;-70
2023/07/06 12:32:22;;;;;;;92.15;87.60;;;;;;;;;;5010977;28;20432;-69
2023/07/06 12:34:52;;;;;;;95.38;90.68;;;;;;;;;;5012833;28;20367;-68
2023/07/06 12:37:19;;;;;;;106.97;101.72;;;;;;;;;;5009885;28;20099;-68
2023/07/06 12:39:47;;;;;;;96.13;91.43;;;;;;;;;;5014077;28;20030;-68
2023/07/06 12:42:16;;;;;;;98.35;93.53;;;;;;;;;;5017515;28;20033;-68
2023/07/06 12:44:43;;;;;;;101.88;96.88;;;;;;;;;;5015830;28;20057;-69
2023/07/06 12:47:19;;;;;;;99.50;94.63;;;;;;;;;;5016557;28;20324;-69
2023/07/06 12:49:45;;;;;;;109.10;103.75;;;;;;;;;;5017117;28;20112;-70
2023/07/06 12:52:12;;;;;;;102.50;97.47;;;;;;;;;;5011076;28;20132;-69
2023/07/06 12:54:49;;;;;;;100.82;95.82;;;;;;;;;;5016591;28;20363;-68
2023/07/06 12:57:22;;;;;;;101.18;96.22;;;;;;;;;;5030886;28;20041;-68
2023/07/06 12:59:53;;;;;;;95.18;90.50;;;;;;;;;;5015078;28;20052;-69
2023/07/06 13:02:21;;;;;;;102.80;97.60;;;;;;;;;;5012388;28;20029;-68
2023/07/06 13:04:48;;;;;;;109.50;104.10;;;;;;;;;;5013411;28;20492;-67
2023/07/06 13:07:16;;;;;;;106.85;101.55;;;;;;;;;;5010838;28;20033;-67
2023/07/06 13:09:42;;;;;;;109.43;104.03;;;;;;;;;;5016352;28;20030;-68
2023/07/06 13:12:17;;;;;;;111.10;105.65;;;;;;;;;;5016341;28;20060;-69
2023/07/06 13:14:45;;;;;;;103.22;98.13;;;;;;;;;;5015909;28;20045;-68
2023/07/06 13:17:14;;;;;;;106.82;101.57;;;;;;;;;;5017261;28;20101;-70
2023/07/06 13:19:40;;;;;;;109.82;104.40;;;;;;;;;;5015691;28;20033;-68
2023/07/06 13:22:05;;;;;;;110.30;104.90;;;;;;;;;;5014314;28;20033;-70
2023/07/06 13:24:32;;;;;;;112.50;106.93;;;;;;;;;;5015821;28;20025;-68
2023/07/06 13:27:01;;;;;;;98.28;93.45;;;;;;;;;;5017143;28;20041;-72
2023/07/06 13:29:27;;;;;;;99.78;94.88;;;;;;;;;;5017036;28;20080;-69
2023/07/06 13:31:53;;;;;;;93.55;88.95;;;;;;;;;;5016738;28;20052;-68
2023/07/06 13:34:19;;;;;;;103.13;98.07;;;;;;;;;;5017696;28;20414;-69
2023/07/06 13:36:45;;;;;;;104.25;99.13;;;;;;;;;;5016641;28;20030;-69
2023/07/06 13:39:11;;;;;;;103.00;97.90;;;;;;;;;;5014880;28;20042;-68
2023/07/06 13:41:37;;;;;;;109.47;104.13;;;;;;;;;;5011047;28;20048;-69
2023/07/06 13:44:04;;;;;;;103.82;98.72;;;;;;;;;;5016768;28;20053;-69
2023/07/06 13:46:34;;;;;;;100.80;95.85;;;;;;;;;;5029834;28;20060;-68
2023/07/06 13:49:00;;;;;;;84.97;80.77;;;;;;;;;;5014065;28;20030;-72
2023/07/06 13:51:28;;;;;;;72.55;68.95;;;;;;;;;;5010104;28;20410;-69
2023/07/06 13:53:54;;;;;;;85.43;81.20;;;;;;;;;;5010843;28;20034;-68
2023/07/06 13:56:20;;;;;;;90.20;85.78;;;;;;;;;;5012610;28;20586;-68
2023/07/06 13:58:46;;;;;;;93.03;88.45;;;;;;;;;;5013171;28;20102;-69
2023/07/06 14:01:14;;;;;;;86.00;81.72;;;;;;;;;;5012312;28;20040;-69
2023/07/06 14:03:42;;;;;;;75.60;71.85;;;;;;;;;;5011867;28;20121;-71
2023/07/06 14:06:08;;;;;;;93.60;89.00;;;;;;;;;;5015250;28;20966;-69
2023/07/06 14:08:34;;;;;;;98.05;93.25;;;;;;;;;;5013406;28;20054;-69
2023/07/06 14:11:00;;;;;;;80.68;76.68;;;;;;;;;;5011708;28;20034;-69
2023/07/06 14:13:26;;;;;;;83.85;79.72;;;;;;;;;;5013333;28;20034;-70
2023/07/06 14:15:53;;;;;;;92.65;88.05;;;;;;;;;;5012946;28;20319;-69
2023/07/06 14:18:18;;;;;;;78.53;74.57;;;;;;;;;;5009281;28;20124;-69
2023/07/06 14:20:44;;;;;;;87.68;83.25;;;;;;;;;;5012605;28;20048;-69
2023/07/06 14:23:15;;;;;;;83.57;79.43;;;;;;;;;;5011319;28;20041;-69
2023/07/06 14:25:42;;;;;;;64.15;60.95;;;;;;;;;;5014006;28;20407;-70
2023/07/06 14:28:10;;;;;;;65.50;62.22;;;;;;;;;;5013911;28;20168;-68
2023/07/06 14:30:36;;;;;;;46.60;44.22;;;;;;;;;;5012568;28;20065;-69
2023/07/06 14:33:06;;;;;;;63.17;60.03;;;;;;;;;;5012544;28;20468;-70